KLSE/LSE METAR and TAF weather

Enter ICAO airport designator
Station Type Date Time Source
KLSE METAR 2020/08/10 23:53 UTC NOAA

KLSE 102353Z 29010KT 10SM CLR 25/16 A2987 RMK AO2 SLP106 60000 T02500156 10261 20228 53002


Station Type Date Time Source
KLSE Decoded METAR 2020/08/10 23:53 UTC NOAA

LA CROSSE MUNICIPAL AIRPORT , WI, United States (KLSE) 43-53N 091-15W 200M
Aug 10, 2020 - 07:53 PM EDT / 2020.08.10 2353 UTC
Wind: from the WNW (290 degrees) at 12 MPH (10 KT):0
Visibility: 10 mile(s):0
Sky conditions: clear
Temperature: 77.0 F (25.0 C)
Dew Point: 60.1 F (15.6 C)
Relative Humidity: 55%
Pressure (altimeter): 29.87 in. Hg (1011 hPa)
Pressure tendency: 0.01 inches (0.2 hPa) higher than three hours ago
ob: KLSE 102353Z 29010KT 10SM CLR 25/16 A2987 RMK AO2 SLP106 60000 T02500156 10261 20228 53002
cycle: 0

Station Type Date Time Source
KLSE TAF 2020/08/10 18:30 UTC NOAA

TAF KLSE 101729Z 1018/1118 32007KT P6SM VCTS BKN050CB
FM102000 32006KT P6SM BKN120
FM110100 28005KT P6SM SCT200

Example: see airport list